createdAt,value
2022-09-12T00:00:25.456Z,18.20
2022-09-12T00:01:27.815Z,18.20
2022-09-12T00:02:29.803Z,18.20
2022-09-12T00:03:31.512Z,18.20
2022-09-12T00:04:33.210Z,18.20
2022-09-12T00:05:40.436Z,18.20
2022-09-12T00:06:42.695Z,18.20
2022-09-12T00:07:44.579Z,18.20
2022-09-12T00:08:46.903Z,18.20
2022-09-12T00:09:48.956Z,18.20
2022-09-12T00:10:50.796Z,18.20
2022-09-12T00:11:52.851Z,18.10
2022-09-12T00:12:55.512Z,18.20
2022-09-12T00:13:59.955Z,18.10
2022-09-12T00:15:01.923Z,18.00
2022-09-12T00:16:03.738Z,18.00
2022-09-12T00:17:05.604Z,18.00
2022-09-12T00:18:09.343Z,18.00
2022-09-12T00:19:12.138Z,17.90
2022-09-12T00:20:13.939Z,17.90
2022-09-12T00:21:17.630Z,17.90
2022-09-12T00:22:19.350Z,17.90
2022-09-12T00:23:21.264Z,17.90
2022-09-12T00:24:23.159Z,17.90
2022-09-12T00:25:24.995Z,17.90
2022-09-12T00:26:26.750Z,17.90
2022-09-12T00:27:28.654Z,17.90
2022-09-12T00:28:30.469Z,17.90
2022-09-12T00:29:32.329Z,17.90
2022-09-12T00:30:34.283Z,17.90
2022-09-12T00:31:36.449Z,17.90
2022-09-12T00:32:38.379Z,17.90
2022-09-12T00:33:40.767Z,17.90
2022-09-12T00:34:42.626Z,17.90
2022-09-12T00:35:50.591Z,17.80
2022-09-12T00:36:52.521Z,17.80
2022-09-12T00:37:57.248Z,17.80
2022-09-12T00:38:59.624Z,17.80
2022-09-12T00:40:01.729Z,17.90
2022-09-12T00:41:03.800Z,17.90
2022-09-12T00:42:05.621Z,17.90
2022-09-12T00:43:35.596Z,17.80
2022-09-12T00:44:37.316Z,17.80
2022-09-12T00:45:39.584Z,17.80
2022-09-12T00:46:59.358Z,17.80
2022-09-12T00:48:04.567Z,17.80
2022-09-12T00:49:14.145Z,17.70
2022-09-12T00:50:17.659Z,17.70
2022-09-12T00:51:20.299Z,17.70
2022-09-12T00:52:28.704Z,17.70
2022-09-12T00:53:30.964Z,17.70
2022-09-12T00:54:38.252Z,17.70
2022-09-12T00:55:46.207Z,17.70
2022-09-12T00:56:51.648Z,17.70
2022-09-12T00:57:57.934Z,17.60
2022-09-12T00:59:11.659Z,17.70
2022-09-12T01:00:16.637Z,17.70
2022-09-12T01:01:19.400Z,17.60
2022-09-12T01:02:21.844Z,17.60
2022-09-12T01:03:25.010Z,17.60
2022-09-12T01:04:29.037Z,17.60
2022-09-12T01:05:36.177Z,17.60
2022-09-12T01:06:41.430Z,17.60
2022-09-12T01:07:44.749Z,17.60
2022-09-12T01:08:48.143Z,17.60
2022-09-12T01:09:50.087Z,17.60
2022-09-12T01:10:53.099Z,17.60
2022-09-12T01:11:56.003Z,17.70
2022-09-12T01:12:59.738Z,17.70
2022-09-12T01:14:01.525Z,17.70
2022-09-12T01:15:03.500Z,17.60
2022-09-12T01:16:06.806Z,17.70
2022-09-12T01:17:12.888Z,17.60
2022-09-12T01:18:29.822Z,17.60
2022-09-12T01:20:05.812Z,17.50
2022-09-12T01:21:20.591Z,17.50
2022-09-12T01:23:00.927Z,17.50
2022-09-12T01:24:29.522Z,17.50
2022-09-12T01:25:46.402Z,17.50
2022-09-12T01:26:53.736Z,17.50
2022-09-12T01:28:21.733Z,17.50
2022-09-12T01:29:32.592Z,17.40
2022-09-12T01:30:39.836Z,17.40
2022-09-12T01:31:48.328Z,17.40
2022-09-12T01:33:23.075Z,17.40
2022-09-12T01:34:28.176Z,17.40
2022-09-12T01:35:50.808Z,17.30
2022-09-12T01:37:00.239Z,17.30
2022-09-12T01:38:19.419Z,17.40
2022-09-12T01:39:32.845Z,17.30
2022-09-12T01:40:54.523Z,17.40
2022-09-12T01:42:05.213Z,17.40
2022-09-12T01:43:21.465Z,17.30
2022-09-12T01:44:33.772Z,17.30
2022-09-12T01:45:50.453Z,17.30
2022-09-12T01:47:36.314Z,17.40
2022-09-12T01:48:57.972Z,17.40
2022-09-12T01:50:08.225Z,17.30
2022-09-12T01:51:21.810Z,17.30
2022-09-12T01:52:32.463Z,17.30
2022-09-12T01:53:56.143Z,17.30
2022-09-12T01:55:09.559Z,17.30
2022-09-12T01:56:22.610Z,17.30
2022-09-12T01:57:32.379Z,17.30
2022-09-12T01:58:54.387Z,17.20
2022-09-12T02:00:01.439Z,17.20
2022-09-12T02:01:11.295Z,17.20
2022-09-12T02:02:31.611Z,17.20
2022-09-12T02:03:45.085Z,17.20
2022-09-12T02:04:59.905Z,17.20
2022-09-12T02:06:25.283Z,17.20
2022-09-12T02:07:36.217Z,17.10
2022-09-12T02:08:44.383Z,17.10
2022-09-12T02:09:54.279Z,17.10
2022-09-12T02:11:01.800Z,17.10
2022-09-12T02:12:06.264Z,17.10
2022-09-12T02:13:15.860Z,17.10
2022-09-12T02:14:32.453Z,17.20
2022-09-12T02:15:44.713Z,17.20
2022-09-12T02:16:55.532Z,17.20
2022-09-12T02:17:59.979Z,17.20
2022-09-12T02:19:09.812Z,17.20
2022-09-12T02:20:31.117Z,17.10
2022-09-12T02:21:43.062Z,17.20
2022-09-12T02:22:47.752Z,17.20
2022-09-12T02:23:57.405Z,17.10
2022-09-12T02:25:00.843Z,17.10
2022-09-12T02:26:20.582Z,17.10
2022-09-12T02:27:27.739Z,17.10
2022-09-12T02:28:41.450Z,17.10
2022-09-12T02:29:44.891Z,17.20
2022-09-12T02:31:22.388Z,17.20
2022-09-12T02:32:32.774Z,17.10
2022-09-12T02:33:52.004Z,17.10
2022-09-12T02:35:03.422Z,17.00
2022-09-12T02:36:24.222Z,17.00
2022-09-12T02:37:50.701Z,17.00
2022-09-12T02:38:53.097Z,17.00
2022-09-12T02:39:59.175Z,17.00
2022-09-12T02:41:01.161Z,17.00
2022-09-12T02:42:04.209Z,17.00
2022-09-12T02:43:06.389Z,17.00
2022-09-12T02:44:08.245Z,17.10
2022-09-12T02:45:11.141Z,17.10
2022-09-12T02:46:18.790Z,17.10
2022-09-12T02:47:33.775Z,17.10
2022-09-12T02:48:41.448Z,17.10
2022-09-12T02:49:43.796Z,17.10
2022-09-12T02:50:46.067Z,17.10
2022-09-12T02:51:48.883Z,17.10
2022-09-12T02:52:54.043Z,17.00
2022-09-12T02:53:56.676Z,17.00
2022-09-12T02:55:00.423Z,17.00
2022-09-12T02:56:03.048Z,16.90
2022-09-12T02:57:17.688Z,16.90
2022-09-12T02:58:29.188Z,16.90
2022-09-12T02:59:31.035Z,16.90
2022-09-12T03:00:39.864Z,16.80
2022-09-12T03:02:28.374Z,16.80
2022-09-12T03:03:45.123Z,16.80
2022-09-12T03:05:11.882Z,16.90
2022-09-12T03:06:19.950Z,16.90
2022-09-12T03:07:55.674Z,16.90
2022-09-12T03:09:17.763Z,16.90
2022-09-12T03:10:48.601Z,16.90
2022-09-12T03:12:06.935Z,16.80
2022-09-12T03:13:33.216Z,16.80
2022-09-12T03:14:44.119Z,16.80
2022-09-12T03:15:54.313Z,16.80
2022-09-12T03:17:09.037Z,16.80
2022-09-12T03:18:24.113Z,16.80
2022-09-12T03:19:32.223Z,16.80
2022-09-12T03:21:02.438Z,16.80
2022-09-12T03:22:24.033Z,16.80
2022-09-12T03:23:38.620Z,16.70
2022-09-12T03:24:51.901Z,16.60
2022-09-12T03:26:01.357Z,16.60
2022-09-12T03:27:10.050Z,16.60
2022-09-12T03:28:15.636Z,16.70
2022-09-12T03:29:19.328Z,16.60
2022-09-12T03:30:21.388Z,16.60
2022-09-12T03:31:23.468Z,16.60
2022-09-12T03:32:51.235Z,16.70
2022-09-12T03:33:53.191Z,16.70
2022-09-12T03:34:55.032Z,16.70
2022-09-12T03:35:57.057Z,16.70
2022-09-12T03:36:59.656Z,16.70
2022-09-12T03:38:01.643Z,16.70
2022-09-12T03:39:03.510Z,16.80
2022-09-12T03:40:09.574Z,16.80
2022-09-12T03:41:11.527Z,16.70
2022-09-12T03:42:13.344Z,16.70
2022-09-12T03:43:15.082Z,16.70
2022-09-12T03:44:17.851Z,16.70
2022-09-12T03:45:19.753Z,16.70
2022-09-12T03:46:21.566Z,16.70
2022-09-12T03:47:23.293Z,16.70
2022-09-12T03:48:25.123Z,16.70
2022-09-12T03:49:27.033Z,16.70
2022-09-12T03:50:28.721Z,16.70
2022-09-12T03:51:31.105Z,16.70
2022-09-12T03:52:33.406Z,16.70
2022-09-12T03:53:35.654Z,16.70
2022-09-12T03:54:37.372Z,16.60
2022-09-12T03:55:40.981Z,16.70
2022-09-12T03:56:42.805Z,16.70
2022-09-12T03:57:45.228Z,16.70
2022-09-12T03:58:47.534Z,16.70
2022-09-12T03:59:53.015Z,16.70
2022-09-12T04:00:54.750Z,16.70
2022-09-12T04:01:56.846Z,16.60
2022-09-12T04:02:58.822Z,16.60
2022-09-12T04:04:00.648Z,16.60
2022-09-12T04:05:02.639Z,16.60
2022-09-12T04:06:04.907Z,16.60
2022-09-12T04:07:06.769Z,16.50
2022-09-12T04:08:08.439Z,16.60
2022-09-12T04:09:10.230Z,16.50
2022-09-12T04:10:11.925Z,16.50
2022-09-12T04:11:15.434Z,16.50
2022-09-12T04:12:18.055Z,16.50
2022-09-12T04:13:19.878Z,16.50
2022-09-12T04:14:21.699Z,16.50
2022-09-12T04:15:23.727Z,16.40
2022-09-12T04:16:25.434Z,16.40
2022-09-12T04:17:27.111Z,16.40
2022-09-12T04:18:29.276Z,16.40
2022-09-12T04:19:30.959Z,16.40
2022-09-12T04:20:32.683Z,16.40
2022-09-12T04:21:34.603Z,16.40
2022-09-12T04:22:36.637Z,16.50
2022-09-12T04:23:38.722Z,16.50
2022-09-12T04:24:41.021Z,16.50
2022-09-12T04:25:42.866Z,16.50
2022-09-12T04:26:44.865Z,16.50
2022-09-12T04:27:46.550Z,16.50
2022-09-12T04:28:53.846Z,16.50
2022-09-12T04:29:56.426Z,16.50
2022-09-12T04:31:02.941Z,16.50
2022-09-12T04:32:04.851Z,16.50
2022-09-12T04:33:08.190Z,16.50
2022-09-12T04:34:10.509Z,16.50
2022-09-12T04:35:13.025Z,16.40
2022-09-12T04:36:17.757Z,16.40
2022-09-12T04:37:19.806Z,16.40
2022-09-12T04:38:21.644Z,16.40
2022-09-12T04:39:23.604Z,16.40
2022-09-12T04:40:25.624Z,16.40
2022-09-12T04:41:31.489Z,16.50
2022-09-12T04:42:33.302Z,16.50
2022-09-12T04:43:36.440Z,16.50
2022-09-12T04:44:38.088Z,16.50
2022-09-12T04:45:40.474Z,16.50
2022-09-12T04:46:47.825Z,16.50
2022-09-12T04:47:49.813Z,16.50
2022-09-12T04:48:56.462Z,16.40
2022-09-12T04:49:58.798Z,16.40
2022-09-12T04:51:28.179Z,16.40
2022-09-12T04:52:29.908Z,16.30
2022-09-12T04:53:31.972Z,16.30
2022-09-12T04:54:35.732Z,16.30
2022-09-12T04:55:37.393Z,16.30
2022-09-12T04:56:40.729Z,16.30
2022-09-12T04:57:42.997Z,16.30
2022-09-12T04:58:45.087Z,16.30
2022-09-12T04:59:46.883Z,16.20
2022-09-12T05:00:49.131Z,16.40
2022-09-12T05:01:51.455Z,16.20
2022-09-12T05:02:53.214Z,16.20
2022-09-12T05:03:55.882Z,16.20
2022-09-12T05:04:57.645Z,16.20
2022-09-12T05:06:00.318Z,16.20
2022-09-12T05:07:02.231Z,16.20
2022-09-12T05:08:06.914Z,16.20
2022-09-12T05:09:11.641Z,16.20
2022-09-12T05:10:13.316Z,16.20
2022-09-12T05:11:22.699Z,16.20
2022-09-12T05:12:27.534Z,16.20
2022-09-12T05:13:29.243Z,16.20
2022-09-12T05:14:32.668Z,16.10
2022-09-12T05:15:35.838Z,16.20
2022-09-12T05:16:37.848Z,16.20
2022-09-12T05:17:39.568Z,16.20
2022-09-12T05:18:41.834Z,16.20
2022-09-12T05:19:43.551Z,16.20
2022-09-12T05:20:45.444Z,16.30
2022-09-12T05:21:47.310Z,16.30
2022-09-12T05:22:49.149Z,16.30
2022-09-12T05:23:52.813Z,16.30
2022-09-12T05:24:54.624Z,16.30
2022-09-12T05:25:58.981Z,16.30
2022-09-12T05:27:00.899Z,16.30
2022-09-12T05:28:02.889Z,16.30
2022-09-12T05:29:06.444Z,16.30
2022-09-12T05:30:09.099Z,16.30
2022-09-12T05:31:16.617Z,16.30
2022-09-12T05:32:19.028Z,16.30
2022-09-12T05:33:24.971Z,16.30
2022-09-12T05:34:28.052Z,16.30
2022-09-12T05:35:30.351Z,16.20
2022-09-12T05:36:32.372Z,16.30
2022-09-12T05:37:35.245Z,16.20
2022-09-12T05:38:37.679Z,16.20
2022-09-12T05:39:40.587Z,16.20
2022-09-12T05:40:42.416Z,16.20
2022-09-12T05:41:44.472Z,16.20
2022-09-12T05:42:46.115Z,16.30
2022-09-12T05:43:51.723Z,16.30
2022-09-12T05:44:53.969Z,16.30
2022-09-12T05:46:09.014Z,16.30
2022-09-12T05:47:12.644Z,16.30
2022-09-12T05:48:14.337Z,16.30
2022-09-12T05:49:16.171Z,16.30
2022-09-12T05:50:18.371Z,16.30
2022-09-12T05:51:23.443Z,16.30
2022-09-12T05:52:25.254Z,16.20
2022-09-12T05:53:28.267Z,16.20
2022-09-12T05:54:31.702Z,16.20
2022-09-12T05:55:34.311Z,16.20
2022-09-12T05:56:41.939Z,16.10
2022-09-12T05:57:47.047Z,16.10
2022-09-12T05:58:57.760Z,16.10
2022-09-12T05:59:59.700Z,16.00
2022-09-12T06:01:16.580Z,16.00
2022-09-12T06:02:18.614Z,15.90
2022-09-12T06:03:20.623Z,15.90
2022-09-12T06:04:23.948Z,15.90
2022-09-12T06:05:26.096Z,15.90
2022-09-12T06:06:29.745Z,15.90
2022-09-12T06:07:32.818Z,15.90
2022-09-12T06:08:36.402Z,15.90
2022-09-12T06:09:38.322Z,15.90
2022-09-12T06:10:40.119Z,15.90
2022-09-12T06:11:42.369Z,15.90
2022-09-12T06:12:44.176Z,15.90
2022-09-12T06:13:46.143Z,15.90
2022-09-12T06:14:47.958Z,15.90
2022-09-12T06:15:50.243Z,15.90
2022-09-12T06:16:52.233Z,15.90
2022-09-12T06:17:54.715Z,15.90
2022-09-12T06:18:58.820Z,16.00
2022-09-12T06:20:00.747Z,16.00
2022-09-12T06:21:12.958Z,16.00
2022-09-12T06:22:14.963Z,16.00
2022-09-12T06:23:16.897Z,16.00
2022-09-12T06:24:19.903Z,16.00
2022-09-12T06:25:22.434Z,16.00
2022-09-12T06:26:25.810Z,16.00
2022-09-12T06:27:27.607Z,16.00
2022-09-12T06:28:29.761Z,16.10
2022-09-12T06:29:32.983Z,16.00
2022-09-12T06:30:37.544Z,16.10
2022-09-12T06:31:44.502Z,16.10
2022-09-12T06:32:46.314Z,16.10
2022-09-12T06:33:50.487Z,16.10
2022-09-12T06:34:52.181Z,16.10
2022-09-12T06:35:54.028Z,16.20
2022-09-12T06:36:55.766Z,16.20
2022-09-12T06:38:00.044Z,16.20
2022-09-12T06:39:05.675Z,16.20
2022-09-12T06:40:08.790Z,16.30
2022-09-12T06:41:12.561Z,16.30
2022-09-12T06:42:14.984Z,16.30
2022-09-12T06:43:16.943Z,16.30
2022-09-12T06:44:21.210Z,16.30
2022-09-12T06:45:22.953Z,16.40
2022-09-12T06:46:25.361Z,16.40
2022-09-12T06:47:27.141Z,16.40
2022-09-12T06:48:29.615Z,16.40
2022-09-12T06:49:31.832Z,16.40
2022-09-12T06:50:33.671Z,16.40
2022-09-12T06:51:38.241Z,16.40
2022-09-12T06:52:40.188Z,16.50
2022-09-12T06:53:42.863Z,16.50
2022-09-12T06:54:45.222Z,16.50
2022-09-12T06:55:47.072Z,16.50
2022-09-12T06:56:48.837Z,16.50
2022-09-12T06:57:51.888Z,16.50
2022-09-12T06:58:56.289Z,16.50
2022-09-12T06:59:58.628Z,16.50
2022-09-12T07:01:15.561Z,16.50
2022-09-12T07:02:17.523Z,16.50
2022-09-12T07:03:19.982Z,16.60
2022-09-12T07:04:22.248Z,16.60
2022-09-12T07:05:24.242Z,16.60
2022-09-12T07:06:31.869Z,16.60
2022-09-12T07:07:35.895Z,16.60
2022-09-12T07:08:38.608Z,16.60
2022-09-12T07:09:40.440Z,16.50
2022-09-12T07:10:42.264Z,16.60
2022-09-12T07:11:45.572Z,16.60
2022-09-12T07:12:47.946Z,16.60
2022-09-12T07:13:56.113Z,16.70
2022-09-12T07:14:57.950Z,16.70
2022-09-12T07:16:04.241Z,16.70
2022-09-12T07:17:07.522Z,16.70
2022-09-12T07:18:11.060Z,16.80
2022-09-12T07:19:12.851Z,16.80
2022-09-12T07:20:14.803Z,16.80
2022-09-12T07:21:16.665Z,16.90
2022-09-12T07:22:18.555Z,16.90
2022-09-12T07:23:20.221Z,17.00
2022-09-12T07:24:21.826Z,17.00
2022-09-12T07:25:24.045Z,17.10
2022-09-12T07:26:27.614Z,17.30
2022-09-12T07:27:29.661Z,17.10
2022-09-12T07:28:34.013Z,17.10
2022-09-12T07:29:37.734Z,17.10
2022-09-12T07:30:39.810Z,17.20
2022-09-12T07:31:41.808Z,17.10
2022-09-12T07:32:43.628Z,17.20
2022-09-12T07:33:45.797Z,17.20
2022-09-12T07:34:47.631Z,17.20
2022-09-12T07:35:49.881Z,17.20
2022-09-12T07:36:51.747Z,17.20
2022-09-12T07:37:53.565Z,17.30
2022-09-12T07:38:59.211Z,17.30
2022-09-12T07:40:02.370Z,17.40
2022-09-12T07:41:14.699Z,17.40
2022-09-12T07:42:16.899Z,17.50
2022-09-12T07:43:18.723Z,17.50
2022-09-12T07:44:22.166Z,17.50
2022-09-12T07:45:23.942Z,17.50
2022-09-12T07:46:26.818Z,17.50
2022-09-12T07:47:28.750Z,17.50
2022-09-12T07:48:30.426Z,17.40
2022-09-12T07:49:32.068Z,17.50
2022-09-12T07:50:34.271Z,17.60
2022-09-12T07:51:35.964Z,17.60
2022-09-12T07:52:37.703Z,17.60
2022-09-12T07:53:43.354Z,17.60
2022-09-12T07:54:45.025Z,17.60
2022-09-12T07:55:53.999Z,17.60
2022-09-12T07:56:55.760Z,17.70
2022-09-12T07:57:57.630Z,17.70
2022-09-12T07:58:59.596Z,17.70
2022-09-12T08:00:01.522Z,17.80
2022-09-12T08:01:05.213Z,17.80
2022-09-12T08:02:12.456Z,17.90
2022-09-12T08:03:18.852Z,17.90
2022-09-12T08:04:22.235Z,18.00
2022-09-12T08:05:24.083Z,18.00
2022-09-12T08:06:27.504Z,18.10
2022-09-12T08:07:29.452Z,18.10
2022-09-12T08:08:31.351Z,18.20
2022-09-12T08:09:33.261Z,18.20
2022-09-12T08:10:36.942Z,18.20
2022-09-12T08:11:38.839Z,18.20
2022-09-12T08:12:40.842Z,18.20
2022-09-12T08:13:43.596Z,18.30
2022-09-12T08:14:45.572Z,18.30
2022-09-12T08:15:47.413Z,18.30
2022-09-12T08:16:49.111Z,18.30
2022-09-12T08:17:51.243Z,18.40
2022-09-12T08:18:53.733Z,18.40
2022-09-12T08:19:56.850Z,18.40
2022-09-12T08:20:59.346Z,18.40
2022-09-12T08:22:03.166Z,18.40
2022-09-12T08:23:05.005Z,18.50
2022-09-12T08:24:07.084Z,18.50
2022-09-12T08:25:09.296Z,18.60
2022-09-12T08:26:12.319Z,18.60
2022-09-12T08:27:15.225Z,18.70
2022-09-12T08:28:16.922Z,18.80
2022-09-12T08:29:18.619Z,18.80
2022-09-12T08:30:20.523Z,18.90
2022-09-12T08:31:24.559Z,18.90
2022-09-12T08:32:26.361Z,19.00
2022-09-12T08:33:33.112Z,19.00
2022-09-12T08:34:35.226Z,19.10
2022-09-12T08:35:37.035Z,19.20
2022-09-12T08:36:38.769Z,19.20
2022-09-12T08:37:41.314Z,19.30
2022-09-12T08:38:45.422Z,19.30
2022-09-12T08:39:47.778Z,19.30
2022-09-12T08:41:00.298Z,19.40
2022-09-12T08:42:04.786Z,19.40
2022-09-12T08:43:34.121Z,19.50
2022-09-12T08:44:56.435Z,19.50
2022-09-12T08:46:04.858Z,19.70
2022-09-12T08:47:28.853Z,19.60
2022-09-12T08:48:31.561Z,19.60
2022-09-12T08:49:57.094Z,19.60
2022-09-12T08:51:00.116Z,19.70
2022-09-12T08:52:23.807Z,19.70
2022-09-12T08:53:28.735Z,19.70
2022-09-12T08:54:31.956Z,19.70
2022-09-12T08:55:41.210Z,19.80
2022-09-12T08:56:43.695Z,19.80
2022-09-12T08:57:46.196Z,19.80
2022-09-12T08:58:48.748Z,19.90
2022-09-12T08:59:51.449Z,19.90
2022-09-12T09:01:26.512Z,19.90
2022-09-12T09:02:49.570Z,20.00
2022-09-12T09:04:09.075Z,20.10
2022-09-12T09:05:21.734Z,20.10
2022-09-12T09:06:43.134Z,20.10
2022-09-12T09:08:02.594Z,20.20
2022-09-12T09:09:15.838Z,20.20
2022-09-12T09:10:52.525Z,20.20
2022-09-12T09:12:12.854Z,20.20
2022-09-12T09:13:47.991Z,20.20
2022-09-12T09:15:23.748Z,20.30
2022-09-12T09:16:35.187Z,20.40
2022-09-12T09:17:50.608Z,20.40
2022-09-12T09:18:54.146Z,20.40
2022-09-12T09:20:17.431Z,20.40
2022-09-12T09:21:29.561Z,20.50
2022-09-12T09:22:48.306Z,20.50
2022-09-12T09:23:56.932Z,20.60
2022-09-12T09:25:08.410Z,20.60
2022-09-12T09:26:26.787Z,20.60
2022-09-12T09:27:55.630Z,20.60
2022-09-12T09:29:03.204Z,20.70
2022-09-12T09:30:05.755Z,20.70
2022-09-12T09:31:16.248Z,20.70
2022-09-12T09:32:23.704Z,20.80
2022-09-12T09:33:32.365Z,20.80
2022-09-12T09:34:35.834Z,20.90
2022-09-12T09:35:52.363Z,20.90
2022-09-12T09:36:57.137Z,21.00
2022-09-12T09:38:06.250Z,21.00
2022-09-12T09:39:13.613Z,21.00
2022-09-12T09:40:39.623Z,21.10
2022-09-12T09:42:03.808Z,21.10
2022-09-12T09:43:08.730Z,21.20
2022-09-12T09:44:10.806Z,21.30
2022-09-12T09:45:22.826Z,21.20
2022-09-12T09:46:25.492Z,21.20
2022-09-12T09:47:27.864Z,21.30
2022-09-12T09:48:36.689Z,21.30
2022-09-12T09:49:39.197Z,21.30
2022-09-12T09:50:41.390Z,21.40
2022-09-12T09:51:43.353Z,21.40
2022-09-12T09:52:47.013Z,21.50
2022-09-12T09:53:53.045Z,21.50
2022-09-12T09:55:01.835Z,21.60
2022-09-12T09:56:26.988Z,21.60
2022-09-12T09:57:34.604Z,21.60
2022-09-12T09:58:37.180Z,21.70
2022-09-12T09:59:38.862Z,21.70
2022-09-12T10:00:40.779Z,21.70
2022-09-12T10:01:53.791Z,21.70
2022-09-12T10:03:26.961Z,21.70
2022-09-12T10:04:32.349Z,21.80
2022-09-12T10:05:46.795Z,21.80
2022-09-12T10:06:52.002Z,21.80
2022-09-12T10:07:53.855Z,21.90
2022-09-12T10:09:17.150Z,21.90
2022-09-12T10:10:23.065Z,21.90
2022-09-12T10:11:33.609Z,22.00
2022-09-12T10:12:35.616Z,21.90
2022-09-12T10:13:54.809Z,22.00
2022-09-12T10:15:05.267Z,22.00
2022-09-12T10:16:22.783Z,22.10
2022-09-12T10:17:33.185Z,22.10
2022-09-12T10:18:42.396Z,22.10
2022-09-12T10:19:45.535Z,22.20
2022-09-12T10:20:49.143Z,22.20
2022-09-12T10:21:54.062Z,22.30
2022-09-12T10:22:56.452Z,22.30
2022-09-12T10:24:00.327Z,22.30
2022-09-12T10:25:02.999Z,22.40
2022-09-12T10:26:10.747Z,22.40
2022-09-12T10:27:13.582Z,22.40
2022-09-12T10:28:27.116Z,22.50
2022-09-12T10:29:33.665Z,22.50
2022-09-12T10:30:39.217Z,22.50
2022-09-12T10:31:59.648Z,22.60
2022-09-12T10:33:08.762Z,22.60
2022-09-12T10:34:32.425Z,22.60
2022-09-12T10:35:45.675Z,22.70
2022-09-12T10:36:47.805Z,22.70
2022-09-12T10:38:02.755Z,22.70
2022-09-12T10:39:06.018Z,22.70
2022-09-12T10:40:22.312Z,22.70
2022-09-12T10:41:25.164Z,22.80
2022-09-12T10:42:50.183Z,22.80
2022-09-12T10:43:52.035Z,22.80
2022-09-12T10:44:56.770Z,22.80
2022-09-12T10:46:00.461Z,22.90
2022-09-12T10:47:24.385Z,22.80
2022-09-12T10:48:31.814Z,22.90
2022-09-12T10:49:38.281Z,22.90
2022-09-12T10:50:42.571Z,22.90
2022-09-12T10:51:44.301Z,22.90
2022-09-12T10:52:45.918Z,22.90
2022-09-12T10:53:47.856Z,23.00
2022-09-12T10:54:51.285Z,23.00
2022-09-12T10:56:28.065Z,23.00
2022-09-12T10:57:35.613Z,23.10
2022-09-12T10:59:19.963Z,23.10
2022-09-12T11:00:27.738Z,23.20
2022-09-12T11:01:32.760Z,23.20
2022-09-12T11:02:48.788Z,23.20
2022-09-12T11:04:02.702Z,23.30
2022-09-12T11:05:46.061Z,23.30
2022-09-12T11:06:56.457Z,23.40
2022-09-12T11:08:07.799Z,23.40
2022-09-12T11:09:19.193Z,23.40
2022-09-12T11:10:34.309Z,23.40
2022-09-12T11:12:00.958Z,23.40
2022-09-12T11:13:02.739Z,23.50
2022-09-12T11:14:32.265Z,23.60
2022-09-12T11:15:39.708Z,23.60
2022-09-12T11:16:55.988Z,23.60
2022-09-12T11:18:18.333Z,23.60
2022-09-12T11:19:44.112Z,23.70
2022-09-12T11:20:57.431Z,23.70
2022-09-12T11:22:31.088Z,23.70
2022-09-12T11:23:36.640Z,23.70
2022-09-12T11:24:49.862Z,23.70
2022-09-12T11:26:23.575Z,23.80
2022-09-12T11:27:51.628Z,23.80
2022-09-12T11:29:18.554Z,23.90
2022-09-12T11:30:20.313Z,23.90
2022-09-12T11:31:42.383Z,23.80
2022-09-12T11:32:46.838Z,24.00
2022-09-12T11:33:56.532Z,23.90
2022-09-12T11:35:19.550Z,24.00
2022-09-12T11:36:27.841Z,24.10
2022-09-12T11:37:38.551Z,24.20
2022-09-12T11:38:51.125Z,24.10
2022-09-12T11:39:55.825Z,24.20
2022-09-12T11:41:24.967Z,24.20
2022-09-12T11:42:31.958Z,24.30
2022-09-12T11:43:53.296Z,24.30
2022-09-12T11:45:31.529Z,24.30
2022-09-12T11:46:38.512Z,24.40
2022-09-12T11:47:43.525Z,24.50
2022-09-12T11:48:55.162Z,24.40
2022-09-12T11:49:58.947Z,24.50
2022-09-12T11:51:04.652Z,24.50
2022-09-12T11:52:25.285Z,24.50
2022-09-12T11:53:34.290Z,24.50
2022-09-12T11:54:42.946Z,24.50
2022-09-12T11:56:00.926Z,24.60
2022-09-12T11:57:16.851Z,24.60
2022-09-12T11:58:22.410Z,24.60
2022-09-12T11:59:50.121Z,24.60
2022-09-12T12:00:56.349Z,24.60
2022-09-12T12:02:00.415Z,24.60
2022-09-12T12:03:13.830Z,24.60
2022-09-12T12:04:22.166Z,24.60
2022-09-12T12:05:31.775Z,24.60
2022-09-12T12:07:03.266Z,24.70
2022-09-12T12:08:08.959Z,24.70
2022-09-12T12:09:12.864Z,24.70
2022-09-12T12:10:31.265Z,24.70
2022-09-12T12:11:44.007Z,24.80
2022-09-12T12:12:46.175Z,24.80
2022-09-12T12:14:07.184Z,24.80
2022-09-12T12:15:16.249Z,24.80
2022-09-12T12:16:33.343Z,24.90
2022-09-12T12:17:35.377Z,24.90
2022-09-12T12:18:38.941Z,24.90
2022-09-12T12:19:40.675Z,24.90
2022-09-12T12:20:42.636Z,24.90
2022-09-12T12:21:46.108Z,24.90
2022-09-12T12:22:54.787Z,24.90
2022-09-12T12:24:02.389Z,25.00
2022-09-12T12:25:12.985Z,25.00
2022-09-12T12:26:40.951Z,25.10
2022-09-12T12:27:50.692Z,25.10
2022-09-12T12:28:52.643Z,25.10
2022-09-12T12:29:54.351Z,25.20
2022-09-12T12:30:56.774Z,25.30
2022-09-12T12:32:02.226Z,25.30
2022-09-12T12:33:13.373Z,25.30
2022-09-12T12:34:28.339Z,25.30
2022-09-12T12:35:36.529Z,25.30
2022-09-12T12:36:42.348Z,25.30
2022-09-12T12:37:48.566Z,25.30
2022-09-12T12:38:50.451Z,25.30
2022-09-12T12:40:03.042Z,25.40
2022-09-12T12:41:17.314Z,25.30
2022-09-12T12:42:39.400Z,25.50
2022-09-12T12:43:41.260Z,25.50
2022-09-12T12:44:47.226Z,25.60
2022-09-12T12:46:02.590Z,25.50
2022-09-12T12:47:25.291Z,25.60
2022-09-12T12:48:30.211Z,25.60
2022-09-12T12:49:32.271Z,25.60
2022-09-12T12:50:34.424Z,25.60
2022-09-12T12:51:48.351Z,25.70
2022-09-12T12:52:52.071Z,25.70
2022-09-12T12:53:55.485Z,25.80
2022-09-12T12:55:03.667Z,25.80
2022-09-12T12:56:06.036Z,25.80
2022-09-12T12:57:13.661Z,25.90
2022-09-12T12:58:34.925Z,25.90
2022-09-12T12:59:36.928Z,25.90
2022-09-12T13:00:40.529Z,26.00
2022-09-12T13:01:54.254Z,26.00
2022-09-12T13:03:08.907Z,26.00
2022-09-12T13:04:18.235Z,26.10
2022-09-12T13:05:24.125Z,26.10
2022-09-12T13:06:34.152Z,26.10
2022-09-12T13:07:40.497Z,26.20
2022-09-12T13:08:57.697Z,26.20
2022-09-12T13:10:01.445Z,26.20
2022-09-12T13:11:09.675Z,26.30
2022-09-12T13:12:33.975Z,26.30
2022-09-12T13:13:40.996Z,26.40
2022-09-12T13:14:42.798Z,26.40
2022-09-12T13:15:51.585Z,26.50
2022-09-12T13:17:03.305Z,26.50
2022-09-12T13:18:12.442Z,26.60
2022-09-12T13:19:20.479Z,26.60
2022-09-12T13:20:29.612Z,26.60
2022-09-12T13:21:31.907Z,26.70
2022-09-12T13:22:43.561Z,26.70
2022-09-12T13:24:00.003Z,26.80
2022-09-12T13:25:03.193Z,26.80
2022-09-12T13:26:24.006Z,26.90
2022-09-12T13:27:26.073Z,26.90
2022-09-12T13:28:30.491Z,26.90
2022-09-12T13:29:32.262Z,26.90
2022-09-12T13:30:37.017Z,26.90
2022-09-12T13:31:40.840Z,27.00
2022-09-12T13:32:44.470Z,27.10
2022-09-12T13:33:51.405Z,27.10
2022-09-12T13:35:13.035Z,27.10
2022-09-12T13:36:44.873Z,27.30
2022-09-12T13:38:08.874Z,27.30
2022-09-12T13:39:20.572Z,27.30
2022-09-12T13:40:57.501Z,27.30
2022-09-12T13:42:37.822Z,27.40
2022-09-12T13:43:46.803Z,27.40
2022-09-12T13:44:53.161Z,27.50
2022-09-12T13:45:55.121Z,27.60
2022-09-12T13:47:01.319Z,27.60
2022-09-12T13:48:04.860Z,27.70
2022-09-12T13:49:29.160Z,27.80
2022-09-12T13:50:41.557Z,27.90
2022-09-12T13:51:43.595Z,27.90
2022-09-12T13:52:50.446Z,28.00
2022-09-12T13:53:56.245Z,28.00
2022-09-12T13:54:59.528Z,28.10
2022-09-12T13:56:01.760Z,28.20
2022-09-12T13:57:04.911Z,28.30
2022-09-12T13:58:22.029Z,28.40
2022-09-12T13:59:24.658Z,28.50
2022-09-12T14:00:26.997Z,28.50
2022-09-12T14:01:43.781Z,28.60
2022-09-12T14:02:47.448Z,28.70
2022-09-12T14:04:13.296Z,28.80
2022-09-12T14:05:22.123Z,28.80
2022-09-12T14:06:26.326Z,28.90
2022-09-12T14:07:28.414Z,29.00
2022-09-12T14:08:32.302Z,29.00
2022-09-12T14:09:43.323Z,29.10
2022-09-12T14:10:49.414Z,29.20
2022-09-12T14:11:52.412Z,29.30
2022-09-12T14:12:57.406Z,29.40
2022-09-12T14:14:01.572Z,29.40
2022-09-12T14:15:04.490Z,29.60
2022-09-12T14:16:09.950Z,29.70
2022-09-12T14:17:38.823Z,30.00
2022-09-12T14:18:45.105Z,30.60
2022-09-12T14:19:47.364Z,31.00
2022-09-12T14:20:52.316Z,31.50
2022-09-12T14:21:54.707Z,31.80
2022-09-12T14:22:59.311Z,32.10
2022-09-12T14:24:05.040Z,32.40
2022-09-12T14:25:14.072Z,32.80
2022-09-12T14:26:20.090Z,33.20
2022-09-12T14:27:32.172Z,33.60
2022-09-12T14:28:35.183Z,34.10
2022-09-12T14:29:36.931Z,34.20
2022-09-12T14:30:39.064Z,34.20
2022-09-12T14:31:41.478Z,34.20
2022-09-12T14:32:43.166Z,34.10